Time;durP1;ratioP1;P1;durP2;ratioP2;P2;SDS_P1;SDS_P2;PMS_P1;PMS_P2;Temp;Humidity;BMP_temperature;BMP_pressure;BME280_temperature;BME280_humidity;BME280_pressure;Samples;Min_cycle;Max_cycle;Signal;HPM_P1;HPM_P2
2024/04/23 00:01:16;;;;;;;4.67;2.37;;;;;;;5.15;100.00;96203.56;5393953;26;20230;-77
2024/04/23 00:03:42;;;;;;;3.43;2.30;;;;;;;5.02;100.00;96205.69;5393170;26;20686;-77
2024/04/23 00:06:10;;;;;;;5.00;2.20;;;;;;;5.08;100.00;96210.34;5393059;26;20242;-77
2024/04/23 00:08:36;;;;;;;3.57;2.20;;;;;;;4.97;100.00;96207.09;5394091;26;20646;-78
2024/04/23 00:11:06;;;;;;;3.40;2.33;;;;;;;5.05;100.00;96204.56;5392522;26;20247;-77
2024/04/23 00:13:32;;;;;;;3.83;2.03;;;;;;;4.83;100.00;96199.72;5393151;26;20348;-77
2024/04/23 00:16:00;;;;;;;4.83;2.30;;;;;;;4.67;100.00;96193.47;5391242;26;20238;-77
2024/04/23 00:18:25;;;;;;;4.17;2.70;;;;;;;4.75;100.00;96196.19;5392828;26;20330;-77
2024/04/23 00:20:55;;;;;;;3.37;2.53;;;;;;;4.78;100.00;96190.69;5392643;26;20238;-77
2024/04/23 00:23:21;;;;;;;2.97;2.30;;;;;;;4.80;100.00;96180.91;5393621;26;20656;-77
2024/04/23 00:25:49;;;;;;;4.40;2.50;;;;;;;4.66;100.00;96187.44;5392459;26;20238;-78
2024/04/23 00:28:17;;;;;;;4.20;2.17;;;;;;;4.74;100.00;96178.91;5394116;26;20227;-77
2024/04/23 00:30:45;;;;;;;3.73;2.20;;;;;;;4.69;100.00;96181.91;5393170;26;21362;-77
2024/04/23 00:33:11;;;;;;;4.43;2.63;;;;;;;4.69;100.00;96188.94;5393678;26;20713;-77
2024/04/23 00:35:39;;;;;;;3.10;2.30;;;;;;;4.62;100.00;96182.63;5393119;26;20331;-76
2024/04/23 00:38:04;;;;;;;4.10;1.93;;;;;;;4.63;100.00;96171.22;5392714;26;20333;-77
2024/04/23 00:40:33;;;;;;;3.97;2.30;;;;;;;4.64;100.00;96180.72;5393782;26;20242;-77
2024/04/23 00:42:58;;;;;;;4.27;2.30;;;;;;;4.51;100.00;96185.44;5392979;26;20817;-77
2024/04/23 00:45:34;;;;;;;4.83;2.50;;;;;;;4.79;100.00;96181.91;5392507;26;20239;-78
2024/04/23 00:48:00;;;;;;;3.93;2.70;;;;;;;4.65;100.00;96180.56;5392346;26;20333;-78
2024/04/23 00:50:30;;;;;;;7.10;2.80;;;;;;;4.72;100.00;96178.19;5393199;26;20235;-77
2024/04/23 00:52:56;;;;;;;6.20;2.43;;;;;;;4.60;100.00;96179.34;5391160;26;20620;-78
2024/04/23 00:55:24;;;;;;;3.83;2.63;;;;;;;4.51;100.00;96185.44;5393575;26;20779;-77
2024/04/23 00:57:50;;;;;;;5.07;2.77;;;;;;;4.45;100.00;96181.56;5392322;26;21059;-77
2024/04/23 01:00:18;;;;;;;6.10;2.60;;;;;;;4.43;100.00;96190.50;5393194;26;20241;-77
2024/04/23 01:02:47;;;;;;;3.87;2.30;;;;;;;4.55;100.00;96190.19;5391313;26;20424;-77
2024/04/23 01:05:15;;;;;;;4.73;2.67;;;;;;;4.56;100.00;96193.66;5392747;26;20341;-77
2024/04/23 01:07:41;;;;;;;4.20;2.47;;;;;;;4.44;100.00;96186.94;5392976;26;20230;-77
2024/04/23 01:10:09;;;;;;;3.53;2.30;;;;;;;4.46;100.00;96185.03;5392161;26;20330;-77
2024/04/23 01:12:35;;;;;;;5.20;2.97;;;;;;;4.43;100.00;96186.13;5391234;26;20571;-77
2024/04/23 01:15:04;;;;;;;3.87;2.43;;;;;;;4.40;100.00;96185.56;5392287;26;20343;-77
2024/04/23 01:17:30;;;;;;;5.57;2.50;;;;;;;4.39;100.00;96183.94;5391290;26;20337;-77
2024/04/23 01:20:06;;;;;;;4.67;2.83;;;;;;;4.47;100.00;96189.28;5392470;26;20347;-77
2024/04/23 01:22:36;;;;;;;6.13;3.13;;;;;;;4.53;100.00;96192.16;5391035;26;20346;-77
2024/04/23 01:25:09;;;;;;;4.40;3.10;;;;;;;4.64;100.00;96193.75;5393210;26;20238;-77
2024/04/23 01:27:38;;;;;;;4.03;2.00;;;;;;;4.63;100.00;96192.09;5391994;26;20308;-77
2024/04/23 01:30:08;;;;;;;5.43;3.17;;;;;;;4.60;100.00;96192.41;5396999;26;20266;-77
2024/04/23 01:32:37;;;;;;;4.53;2.73;;;;;;;4.77;100.00;96186.44;5393782;26;20241;-77
2024/04/23 01:35:07;;;;;;;5.30;3.13;;;;;;;4.52;100.00;96189.66;5396554;26;20314;-77
2024/04/23 01:37:35;;;;;;;3.83;2.37;;;;;;;4.52;100.00;96189.66;5396728;26;20238;-77
2024/04/23 01:40:04;;;;;;;4.87;2.83;;;;;;;4.65;100.00;96185.78;5396499;26;20231;-77
2024/04/23 01:42:31;;;;;;;6.10;3.20;;;;;;;4.57;100.00;96185.69;5395213;26;20341;-77
2024/04/23 01:45:03;;;;;;;5.30;3.17;;;;;;;4.66;100.00;96189.19;5396175;26;20234;-77
2024/04/23 01:47:28;;;;;;;5.33;3.00;;;;;;;4.45;100.00;96180.75;5395745;26;20223;-77
2024/04/23 01:49:57;;;;;;;7.43;3.27;;;;;;;4.57;100.00;96187.44;5395914;26;20743;-77
2024/04/23 01:52:22;;;;;;;3.67;2.40;;;;;;;4.51;100.00;96178.41;5394768;26;20272;-77
2024/04/23 01:54:51;;;;;;;6.73;2.73;;;;;;;4.63;100.00;96177.25;5396158;26;20226;-77
2024/04/23 01:57:16;;;;;;;4.00;2.33;;;;;;;4.60;100.00;96174.94;5395523;26;20325;-77
2024/04/23 01:59:48;;;;;;;5.70;2.50;;;;;;;4.77;100.00;96168.97;5395530;26;21016;-77
2024/04/23 02:02:18;;;;;;;4.80;2.90;;;;;;;4.65;100.00;96169.31;5395223;26;20388;-77
2024/04/23 02:04:47;;;;;;;5.17;2.60;;;;;;;4.15;100.00;96173.16;5394701;26;20274;-77
2024/04/23 02:07:13;;;;;;;7.50;2.90;;;;;;;4.32;100.00;96167.22;5394845;26;20656;-77
2024/04/23 02:09:42;;;;;;;3.57;2.47;;;;;;;4.39;100.00;96168.28;5395558;26;20724;-77
2024/04/23 02:12:12;;;;;;;7.43;3.47;;;;;;;4.45;100.00;96162.50;5395732;26;20234;-77
2024/04/23 02:14:40;;;;;;;5.07;2.97;;;;;;;4.28;100.00;96155.41;5393465;26;20229;-77
2024/04/23 02:17:06;;;;;;;4.63;2.87;;;;;;;4.00;100.00;96150.25;5395642;26;20815;-77
2024/04/23 02:19:37;;;;;;;5.77;2.83;;;;;;;4.22;100.00;96153.38;5394355;26;20235;-77
2024/04/23 02:22:02;;;;;;;4.13;2.60;;;;;;;4.06;100.00;96150.53;5395030;26;20255;-77
2024/04/23 02:24:30;;;;;;;5.50;3.00;;;;;;;4.23;100.00;96147.19;5393754;26;20354;-78
2024/04/23 02:26:56;;;;;;;5.77;3.00;;;;;;;4.24;100.00;96149.66;5395383;26;20330;-77
2024/04/23 02:29:24;;;;;;;4.83;2.90;;;;;;;4.22;100.00;96146.34;5395029;26;20246;-77
2024/04/23 02:31:49;;;;;;;4.53;2.67;;;;;;;4.00;100.00;96145.84;5390838;26;20666;-77
2024/04/23 02:34:17;;;;;;;4.70;2.63;;;;;;;4.01;100.00;96144.06;5393970;26;20922;-77
2024/04/23 02:36:46;;;;;;;6.27;3.13;;;;;;;4.07;100.00;96141.72;5395160;26;21058;-77
2024/04/23 02:39:14;;;;;;;5.40;2.93;;;;;;;3.94;100.00;96138.59;5394039;26;20716;-77
2024/04/23 02:41:46;;;;;;;4.57;2.53;;;;;;;4.26;100.00;96139.06;5395197;26;20287;-77
2024/04/23 02:44:14;;;;;;;3.87;2.37;;;;;;;4.19;100.00;96129.34;5393336;26;20730;-77
2024/04/23 02:46:40;;;;;;;5.33;2.97;;;;;;;4.08;100.00;96126.91;5395177;26;20296;-77
2024/04/23 02:49:08;;;;;;;4.90;2.70;;;;;;;4.00;100.00;96130.22;5394780;26;20331;-77
2024/04/23 02:51:34;;;;;;;5.23;3.03;;;;;;;3.82;100.00;96128.47;5395072;26;21189;-78
2024/04/23 02:54:05;;;;;;;4.97;3.07;;;;;;;4.04;100.00;96131.59;5393083;26;20398;-77
2024/04/23 02:56:30;;;;;;;4.97;2.80;;;;;;;3.82;100.00;96126.69;5395770;26;20226;-77
2024/04/23 02:58:58;;;;;;;6.93;3.10;;;;;;;3.85;100.00;96123.78;5393607;26;20275;-77
2024/04/23 03:01:24;;;;;;;4.30;2.90;;;;;;;3.82;100.00;96126.69;5395658;26;20835;-77
2024/04/23 03:03:52;;;;;;;6.03;2.67;;;;;;;3.67;100.00;96125.44;5393762;26;20296;-77
2024/04/23 03:06:18;;;;;;;6.17;3.23;;;;;;;3.68;100.00;96126.28;5394838;26;20293;-77
2024/04/23 03:08:47;;;;;;;5.07;2.83;;;;;;;3.71;100.00;96124.22;5394534;26;21435;-77
2024/04/23 03:11:15;;;;;;;3.57;2.43;;;;;;;3.86;100.00;96122.03;5394361;26;20272;-77
2024/04/23 03:13:43;;;;;;;5.20;2.97;;;;;;;3.62;100.00;96130.25;5393941;26;20275;-77
2024/04/23 03:16:08;;;;;;;4.87;3.13;;;;;;;3.51;100.00;96126.16;5393154;26;20280;-77
2024/04/23 03:18:37;;;;;;;6.20;2.93;;;;;;;3.54;100.00;96123.25;5395202;26;20315;-77
2024/04/23 03:21:03;;;;;;;7.33;3.20;;;;;;;3.60;100.00;96120.94;5393319;26;20316;-77
2024/04/23 03:23:31;;;;;;;5.20;3.10;;;;;;;3.48;100.00;96126.44;5393907;26;20301;-77
2024/04/23 03:25:57;;;;;;;6.13;3.20;;;;;;;3.47;100.00;96130.81;5394201;26;20553;-77
2024/04/23 03:28:27;;;;;;;4.47;3.07;;;;;;;3.68;100.00;96123.69;5394778;26;20515;-77
2024/04/23 03:30:53;;;;;;;6.87;3.43;;;;;;;3.59;100.00;96121.91;5393715;26;20366;-77
2024/04/23 03:33:21;;;;;;;4.33;2.97;;;;;;;3.62;100.00;96126.03;5393835;26;20829;-77
2024/04/23 03:35:47;;;;;;;4.40;2.80;;;;;;;3.49;100.00;96117.63;5393763;26;20234;-77
2024/04/23 03:38:15;;;;;;;6.80;3.20;;;;;;;3.62;100.00;96119.81;5393767;26;20330;-77
2024/04/23 03:40:43;;;;;;;6.93;3.20;;;;;;;3.68;100.00;96111.47;5394208;26;20375;-77
2024/04/23 03:43:11;;;;;;;5.07;2.87;;;;;;;3.55;100.00;96114.50;5392888;26;20284;-77
2024/04/23 03:45:42;;;;;;;4.83;2.80;;;;;;;3.83;100.00;96110.09;5394759;26;21588;-77
2024/04/23 03:48:07;;;;;;;8.23;3.33;;;;;;;3.76;100.00;96111.59;5393721;26;20603;-77
2024/04/23 03:50:36;;;;;;;6.03;3.10;;;;;;;3.75;100.00;96104.72;5393964;26;20336;-77
2024/04/23 03:53:01;;;;;;;4.77;2.80;;;;;;;3.91;100.00;96110.22;5392531;26;20484;-77
2024/04/23 03:55:29;;;;;;;5.50;2.97;;;;;;;3.91;100.00;96112.81;5394676;26;20356;-77
2024/04/23 03:57:57;;;;;;;5.53;2.87;;;;;;;3.90;100.00;96110.34;5394614;26;20773;-77
2024/04/23 04:00:25;;;;;;;4.90;2.83;;;;;;;3.82;100.00;96112.84;5393415;26;20333;-77
2024/04/23 04:08:24;;;;;;;5.87;3.17;;;;;;;3.65;100.00;96110.91;5397360;26;20268;-76
2024/04/23 04:10:52;;;;;;;4.23;2.73;;;;;;;3.80;100.00;96112.94;5393499;26;20351;-77
2024/04/23 04:13:20;;;;;;;6.90;3.10;;;;;;;3.94;100.00;96115.13;5392232;26;21206;-77
2024/04/23 04:15:49;;;;;;;4.43;2.67;;;;;;;3.93;100.00;96107.47;5392438;26;20285;-77
2024/04/23 04:18:18;;;;;;;4.53;2.67;;;;;;;3.92;100.00;96114.47;5393503;26;21219;-77
2024/04/23 04:20:46;;;;;;;4.23;2.50;;;;;;;3.89;100.00;96106.91;5393377;26;20293;-77
2024/04/23 04:23:11;;;;;;;5.03;3.07;;;;;;;3.91;100.00;96104.19;5392056;26;20281;-77
2024/04/23 04:25:40;;;;;;;4.77;2.63;;;;;;;3.70;100.00;96101.75;5393862;26;20348;-77
2024/04/23 04:28:05;;;;;;;5.87;3.20;;;;;;;3.95;100.00;96095.13;5391936;26;20527;-77
2024/04/23 04:30:34;;;;;;;5.03;3.03;;;;;;;3.89;100.00;96091.28;5394345;26;20237;-77
2024/04/23 04:32:59;;;;;;;8.57;3.97;;;;;;;3.53;100.00;96098.19;5391817;26;20379;-77
2024/04/23 04:35:30;;;;;;;4.63;2.87;;;;;;;3.72;100.00;96088.56;5393890;26;20300;-77
2024/04/23 04:37:55;;;;;;;5.07;3.33;;;;;;;3.83;100.00;96094.47;5392963;26;20282;-77
2024/04/23 04:40:24;;;;;;;4.63;2.87;;;;;;;3.91;100.00;96080.72;5393343;26;20304;-77
2024/04/23 04:42:50;;;;;;;8.07;3.00;;;;;;;3.80;100.00;96096.50;5390470;26;20355;-77
2024/04/23 04:45:19;;;;;;;4.73;2.90;;;;;;;3.95;100.00;96092.50;5394207;26;20265;-77
2024/04/23 04:47:48;;;;;;;5.37;3.20;;;;;;;3.95;100.00;96092.50;5392089;26;20360;-77
2024/04/23 04:50:17;;;;;;;4.53;2.80;;;;;;;4.09;100.00;96092.88;5393293;26;20335;-77
2024/04/23 04:52:45;;;;;;;4.43;2.87;;;;;;;3.96;100.00;96092.38;5391528;26;20269;-77
2024/04/23 04:55:13;;;;;;;4.40;2.80;;;;;;;3.85;100.00;96095.13;5393157;26;20249;-77
2024/04/23 04:57:39;;;;;;;4.93;3.17;;;;;;;3.99;100.00;96099.91;5393030;26;20352;-77
2024/04/23 05:00:08;;;;;;;6.13;2.93;;;;;;;3.97;100.00;96096.63;5392233;26;20235;-77
2024/04/23 05:02:34;;;;;;;8.00;3.00;;;;;;;3.73;100.00;96101.47;5392067;26;20368;-77
2024/04/23 05:05:02;;;;;;;6.57;3.33;;;;;;;3.96;100.00;96100.19;5395780;26;20238;-77
2024/04/23 05:07:28;;;;;;;4.70;2.83;;;;;;;3.93;100.00;96107.47;5396149;26;20659;-77
2024/04/23 05:09:59;;;;;;;4.93;2.97;;;;;;;3.87;100.00;96100.19;5396160;26;20281;-76
2024/04/23 05:12:24;;;;;;;5.10;3.33;;;;;;;3.76;100.00;96105.56;5395295;26;20300;-76
2024/04/23 05:14:53;;;;;;;4.70;3.00;;;;;;;4.00;100.00;96104.16;5395625;26;20678;-77
2024/04/23 05:17:18;;;;;;;6.30;3.20;;;;;;;4.07;100.00;96099.19;5396049;26;20290;-77
2024/04/23 05:19:46;;;;;;;7.23;3.10;;;;;;;4.09;100.00;96102.50;5397291;26;20337;-77
2024/04/23 05:22:12;;;;;;;6.03;3.27;;;;;;;3.96;100.00;96102.78;5394224;26;20346;-77
2024/04/23 05:24:40;;;;;;;5.17;3.00;;;;;;;4.23;100.00;96101.06;5394337;26;21737;-77
2024/04/23 05:27:08;;;;;;;3.73;2.27;;;;;;;4.08;100.00;96101.66;5395603;26;20282;-77
2024/04/23 05:29:40;;;;;;;5.50;3.10;;;;;;;3.64;100.00;96109.28;5397029;26;20230;-77
2024/04/23 05:34:52;;;;;;;5.63;3.80;;;;;;;4.16;100.00;96101.75;5399081;26;20317;-77
2024/04/23 05:37:20;;;;;;;6.63;3.30;;;;;;;3.99;100.00;96109.50;5396280;26;20316;-77
2024/04/23 05:39:49;;;;;;;4.77;2.90;;;;;;;3.97;100.00;96108.81;5395933;26;20325;-77
2024/04/23 05:42:20;;;;;;;5.77;3.07;;;;;;;4.43;100.00;96105.25;5395872;26;20305;-77
2024/04/23 05:44:48;;;;;;;5.20;3.23;;;;;;;4.27;100.00;96106.81;5394079;26;20279;-77
2024/04/23 05:47:16;;;;;;;5.63;2.97;;;;;;;4.47;100.00;96113.63;5396330;26;20279;-77
2024/04/23 05:50:22;;;;;;;4.87;2.70;;;;;;;4.85;100.00;96104.66;5394688;26;20295;-77
2024/04/23 05:53:27;;;;;;;10.83;3.37;;;;;;;4.70;100.00;96107.88;5394388;26;20371;-77
2024/04/23 05:55:55;;;;;;;5.13;2.53;;;;;;;4.46;100.00;96106.75;5394153;26;20340;-77
2024/04/23 05:58:23;;;;;;;4.53;2.60;;;;;;;4.62;100.00;96107.78;5396402;26;20242;-77
2024/04/23 06:00:54;;;;;;;6.30;3.30;;;;;;;4.51;100.00;96114.97;5395397;26;20282;-76
2024/04/23 06:03:20;;;;;;;6.27;3.50;;;;;;;4.52;100.00;96117.44;5395265;26;20368;-77
2024/04/23 06:05:48;;;;;;;4.93;2.60;;;;;;;4.50;100.00;96116.75;5394281;26;20246;-77
2024/04/23 06:08:13;;;;;;;3.93;2.90;;;;;;;4.39;100.00;96111.72;5395703;26;20234;-77
2024/04/23 06:10:41;;;;;;;4.93;2.60;;;;;;;4.57;100.00;96114.38;5396116;26;21156;-77
2024/04/23 06:13:07;;;;;;;3.73;2.77;;;;;;;4.54;100.00;96118.09;5395570;26;21226;-77
2024/04/23 06:15:38;;;;;;;5.87;3.37;;;;;;;4.52;100.00;96125.28;5394776;26;20241;-77
2024/04/23 06:18:04;;;;;;;4.73;2.90;;;;;;;4.39;100.00;96127.38;5394491;26;20340;-77
2024/04/23 06:20:32;;;;;;;3.70;2.33;;;;;;;4.47;100.00;96131.88;5395851;26;20242;-77
2024/04/23 06:22:58;;;;;;;5.53;3.03;;;;;;;4.35;100.00;96125.19;5395092;26;20779;-77
2024/04/23 06:25:26;;;;;;;5.50;2.73;;;;;;;4.40;100.00;96122.97;5395168;26;20235;-77
2024/04/23 06:27:54;;;;;;;5.40;3.23;;;;;;;4.50;100.00;96123.78;5395890;26;20681;-77
2024/04/23 06:30:20;;;;;;;8.77;2.67;;;;;;;4.72;100.00;96118.19;5395151;26;20327;-77
2024/04/23 06:32:51;;;;;;;7.43;2.83;;;;;;;4.93;100.00;96115.16;5393357;26;21256;-77
2024/04/23 06:35:18;;;;;;;4.73;3.00;;;;;;;4.78;100.00;96117.59;5395464;26;20334;-76
2024/04/23 06:37:46;;;;;;;5.37;2.73;;;;;;;4.89;100.00;96116.44;5394190;26;20238;-77
2024/04/23 06:40:12;;;;;;;5.30;2.40;;;;;;;5.90;100.00;96117.81;5394426;26;20298;-76
2024/04/23 06:42:41;;;;;;;5.83;3.17;;;;;;;6.04;100.00;96117.25;5392339;26;20952;-77
2024/04/23 06:45:07;;;;;;;6.13;2.90;;;;;;;5.85;100.00;96115.63;5394464;26;20261;-77
2024/04/23 06:47:35;;;;;;;4.00;2.37;;;;;;;5.68;99.96;96116.44;5394418;26;20282;-77
2024/04/23 06:50:07;;;;;;;4.50;2.40;;;;;;;5.38;99.05;96123.00;5394465;26;21010;-77
2024/04/23 06:52:35;;;;;;;4.30;2.43;;;;;;;5.36;100.00;96115.31;5393534;26;20782;-77
2024/04/23 06:55:02;;;;;;;6.67;3.23;;;;;;;5.54;100.00;96121.38;5394537;26;20302;-77
2024/04/23 06:57:30;;;;;;;7.00;3.13;;;;;;;5.31;100.00;96111.50;5394626;26;20349;-78
2024/04/23 06:59:56;;;;;;;4.53;2.57;;;;;;;5.33;100.00;96117.41;5394030;26;20227;-77
2024/04/23 07:02:24;;;;;;;4.33;2.80;;;;;;;5.54;100.00;96108.31;5393214;26;20808;-76
2024/04/23 07:04:50;;;;;;;5.20;2.83;;;;;;;5.21;100.00;96114.19;5394211;26;21193;-76
2024/04/23 07:07:20;;;;;;;4.53;2.53;;;;;;;5.60;100.00;96103.31;5394044;26;20299;-76
2024/04/23 07:09:46;;;;;;;4.47;2.33;;;;;;;5.46;100.00;96103.81;5394470;26;20338;-77
2024/04/23 07:12:14;;;;;;;4.03;2.50;;;;;;;5.46;100.00;96110.84;5393698;26;20246;-76
2024/04/23 07:14:40;;;;;;;5.20;2.63;;;;;;;5.35;100.00;96108.44;5393009;26;20238;-77
2024/04/23 07:17:08;;;;;;;6.23;3.20;;;;;;;5.34;100.00;96106.81;5392560;26;20231;-76
2024/04/23 07:19:33;;;;;;;5.27;2.83;;;;;;;5.35;100.00;96103.22;5394986;26;20226;-76
2024/04/23 07:22:02;;;;;;;4.80;2.73;;;;;;;5.50;100.00;96107.78;5393328;26;20335;-76
2024/04/23 07:24:30;;;;;;;5.30;2.87;;;;;;;5.87;100.00;96100.63;5394674;26;20223;-77
2024/04/23 07:26:58;;;;;;;6.00;2.97;;;;;;;5.84;100.00;96107.94;5392217;26;20281;-76
2024/04/23 07:29:27;;;;;;;6.77;3.33;;;;;;;5.57;100.00;96105.38;5394539;26;20331;-76
2024/04/23 07:31:55;;;;;;;6.63;3.63;;;;;;;5.64;100.00;96103.84;5394534;26;20336;-77
2024/04/23 07:34:21;;;;;;;6.73;3.40;;;;;;;6.01;100.00;96099.22;5393018;26;20725;-76
2024/04/23 07:36:49;;;;;;;6.50;3.57;;;;;;;6.20;100.00;96098.06;5393766;26;20270;-77
2024/04/23 07:39:14;;;;;;;4.27;2.93;;;;;;;6.12;100.00;96105.03;5395027;26;20322;-76
2024/04/23 07:41:46;;;;;;;6.33;3.10;;;;;;;6.17;100.00;96097.56;5394237;26;20333;-76
2024/04/23 07:44:11;;;;;;;6.70;3.37;;;;;;;6.25;100.00;96095.81;5392744;26;20222;-76
2024/04/23 07:46:40;;;;;;;7.07;3.00;;;;;;;6.60;100.00;96087.81;5394689;26;21107;-76
2024/04/23 07:49:05;;;;;;;8.07;3.07;;;;;;;6.54;100.00;96096.28;5392972;26;20290;-77
2024/04/23 07:51:33;;;;;;;5.77;2.90;;;;;;;6.63;100.00;96092.75;5393565;26;20351;-76
2024/04/23 07:53:59;;;;;;;3.93;2.47;;;;;;;6.93;100.00;96093.03;5392628;26;20369;-77
2024/04/23 07:56:27;;;;;;;6.40;3.53;;;;;;;6.86;100.00;96093.81;5393965;26;20246;-77
2024/04/23 07:58:55;;;;;;;5.07;3.07;;;;;;;7.06;97.81;96087.34;5393861;26;20767;-77
2024/04/23 08:01:23;;;;;;;6.33;2.97;;;;;;;6.60;100.00;96087.81;5394560;26;20237;-76
2024/04/23 08:03:49;;;;;;;6.17;3.40;;;;;;;6.65;100.00;96088.19;5392379;26;20331;-76
2024/04/23 08:06:17;;;;;;;7.27;3.50;;;;;;;6.63;100.00;96087.50;5393548;26;20239;-76
2024/04/23 08:08:43;;;;;;;8.60;3.33;;;;;;;6.63;100.00;96084.88;5393763;26;20326;-77
2024/04/23 08:11:11;;;;;;;6.63;2.70;;;;;;;6.98;100.00;96082.09;5393861;26;21390;-77
2024/04/23 08:13:36;;;;;;;5.83;2.83;;;;;;;6.67;97.31;96076.56;5391654;26;20400;-77
2024/04/23 08:16:08;;;;;;;5.57;2.90;;;;;;;7.03;98.32;96071.97;5393174;26;21526;-77
2024/04/23 08:18:34;;;;;;;3.63;2.20;;;;;;;7.16;100.00;96082.81;5393002;26;20286;-77
2024/04/23 08:21:05;;;;;;;7.57;2.63;;;;;;;7.32;99.40;96079.22;5392258;26;20230;-77
2024/04/23 08:23:31;;;;;;;3.90;2.20;;;;;;;7.24;100.00;96083.63;5392230;26;20235;-76
2024/04/23 08:26:07;;;;;;;4.73;3.03;;;;;;;7.20;100.00;96073.66;5394278;26;20332;-77
2024/04/23 08:28:33;;;;;;;4.73;2.60;;;;;;;7.47;100.00;96076.78;5392649;26;20285;-76
2024/04/23 08:31:01;;;;;;;5.77;2.80;;;;;;;7.43;98.75;96078.09;5393589;26;20230;-77
2024/04/23 08:33:29;;;;;;;10.90;2.77;;;;;;;7.67;99.23;96073.69;5392863;26;20385;-76
2024/04/23 08:35:57;;;;;;;5.30;2.83;;;;;;;7.49;100.00;96078.28;5393747;26;20231;-76
2024/04/23 08:38:23;;;;;;;4.07;2.40;;;;;;;7.66;100.00;96081.72;5393477;26;20808;-76
2024/04/23 08:40:51;;;;;;;5.00;3.00;;;;;;;7.68;100.00;96085.84;5396762;26;20231;-77
2024/04/23 08:43:20;;;;;;;5.20;3.27;;;;;;;7.82;100.00;96077.31;5395317;26;20444;-76
2024/04/23 08:45:49;;;;;;;4.13;2.50;;;;;;;7.51;100.00;96080.72;5396937;26;20277;-76
2024/04/23 08:48:15;;;;;;;3.20;2.33;;;;;;;7.83;99.37;96076.34;5397151;26;20396;-77
2024/04/23 08:50:47;;;;;;;7.20;3.10;;;;;;;7.95;97.98;96072.38;5396645;26;20327;-76
2024/04/23 08:53:14;;;;;;;5.63;3.00;;;;;;;7.80;98.42;96078.47;5394222;26;20290;-77
2024/04/23 08:55:46;;;;;;;4.57;2.73;;;;;;;7.66;100.00;96074.69;5396779;26;20239;-76
2024/04/23 08:58:12;;;;;;;6.77;3.03;;;;;;;7.46;100.00;96075.19;5396868;26;20286;-77
2024/04/23 09:00:41;;;;;;;5.83;3.07;;;;;;;7.57;100.00;96082.72;5394685;26;20697;-76
2024/04/23 09:03:12;;;;;;;4.67;2.87;;;;;;;7.63;100.00;96082.88;5396009;26;20234;-77
2024/04/23 09:05:40;;;;;;;6.57;3.27;;;;;;;7.48;97.17;96084.50;5396300;26;20234;-77
2024/04/23 09:08:09;;;;;;;5.10;2.77;;;;;;;7.58;100.00;96084.34;5396870;26;20362;-77
2024/04/23 09:10:37;;;;;;;4.77;2.93;;;;;;;7.54;100.00;96081.22;5395044;26;20227;-76
2024/04/23 09:13:03;;;;;;;4.40;2.80;;;;;;;7.59;97.93;96076.31;5395690;26;20251;-77
2024/04/23 09:15:31;;;;;;;8.63;2.90;;;;;;;7.73;100.00;96072.25;5395829;26;20235;-77
2024/04/23 09:17:57;;;;;;;4.17;2.50;;;;;;;7.55;98.95;96071.56;5396347;26;20327;-76
2024/04/23 09:20:26;;;;;;;5.47;2.60;;;;;;;7.23;100.00;96074.16;5396529;26;20243;-77
2024/04/23 09:22:52;;;;;;;3.90;2.67;;;;;;;7.12;100.00;96071.81;5389098;26;20347;-77
2024/04/23 09:25:22;;;;;;;3.90;2.70;;;;;;;7.47;100.00;96077.63;5394360;26;20231;-76
2024/04/23 09:27:48;;;;;;;6.73;2.67;;;;;;;7.03;100.00;96072.78;5394094;26;20290;-77
2024/04/23 09:30:25;;;;;;;4.63;2.47;;;;;;;7.27;100.00;96065.78;5394470;26;20231;-77
2024/04/23 09:32:58;;;;;;;5.00;2.60;;;;;;;7.14;100.00;96075.09;5392350;26;20235;-77
2024/04/23 09:35:26;;;;;;;4.97;2.50;;;;;;;6.79;100.00;96074.50;5393933;26;20231;-76
2024/04/23 09:37:52;;;;;;;3.33;2.43;;;;;;;6.95;100.00;96077.16;5392846;26;20271;-77
2024/04/23 09:40:22;;;;;;;4.67;2.80;;;;;;;6.95;100.00;96066.69;5393803;26;20302;-77
2024/04/23 09:42:52;;;;;;;4.63;2.50;;;;;;;6.73;100.00;96069.88;5393157;26;20339;-76
2024/04/23 09:45:23;;;;;;;4.00;2.70;;;;;;;6.85;100.00;96071.25;5394629;26;20235;-76
2024/04/23 09:47:49;;;;;;;4.40;2.93;;;;;;;6.88;100.00;96074.34;5394009;26;20349;-76
2024/04/23 09:50:20;;;;;;;4.17;2.60;;;;;;;6.81;100.00;96065.50;5393221;26;20273;-76
2024/04/23 09:52:45;;;;;;;5.27;2.90;;;;;;;6.71;100.00;96064.00;5393648;26;20649;-77
2024/04/23 09:55:16;;;;;;;4.67;2.60;;;;;;;6.75;100.00;96062.69;5393602;26;20332;-77
2024/04/23 09:57:51;;;;;;;4.43;2.50;;;;;;;6.70;100.00;96059.72;5393072;26;20876;-77
2024/04/23 10:00:19;;;;;;;5.17;2.93;;;;;;;6.79;100.00;96058.78;5395157;26;20234;-77
2024/04/23 10:02:55;;;;;;;4.47;2.33;;;;;;;6.81;100.00;96057.66;5392002;26;20247;-76
2024/04/23 10:05:29;;;;;;;4.53;2.50;;;;;;;7.05;100.00;96062.13;5392426;26;20219;-76
2024/04/23 10:08:01;;;;;;;4.83;2.60;;;;;;;6.93;100.00;96060.78;5392932;26;20219;-77
2024/04/23 10:10:36;;;;;;;3.87;2.53;;;;;;;7.14;100.00;96055.94;5392035;26;20261;-76
2024/04/23 10:13:08;;;;;;;3.97;2.47;;;;;;;6.77;100.00;96060.72;5390752;26;20265;-77
2024/04/23 10:15:42;;;;;;;4.47;2.80;;;;;;;7.00;100.00;96048.69;5392516;26;20951;-76
2024/04/23 10:18:12;;;;;;;3.80;2.50;;;;;;;7.25;100.00;96047.78;5395110;26;20273;-77
2024/04/23 10:20:49;;;;;;;5.03;2.70;;;;;;;7.22;100.00;96048.06;5395398;26;20231;-77
2024/04/23 10:23:18;;;;;;;5.17;2.73;;;;;;;7.02;100.00;96044.13;5394908;26;20281;-77
2024/04/23 10:25:46;;;;;;;4.87;2.80;;;;;;;6.88;100.00;96048.16;5394934;26;20738;-76
2024/04/23 10:28:15;;;;;;;6.53;2.57;;;;;;;7.25;100.00;96051.22;5395206;26;20289;-77
2024/04/23 10:30:43;;;;;;;8.03;2.83;;;;;;;7.10;100.00;96046.75;5395803;26;20266;-77
2024/04/23 10:33:11;;;;;;;5.30;2.63;;;;;;;7.28;100.00;96045.66;5394458;26;20277;-77
2024/04/23 10:35:42;;;;;;;5.67;3.30;;;;;;;7.26;100.00;96052.03;5395347;26;20227;-77
2024/04/23 10:38:09;;;;;;;3.90;2.67;;;;;;;7.17;100.00;96048.56;5394024;26;20282;-77
2024/04/23 10:40:38;;;;;;;3.47;2.27;;;;;;;7.35;100.00;96051.88;5395543;26;20271;-77
2024/04/23 10:43:04;;;;;;;5.50;2.37;;;;;;;7.16;100.00;96049.56;5392814;26;21185;-77
2024/04/23 10:45:35;;;;;;;4.40;2.93;;;;;;;7.16;100.00;96046.13;5395693;26;20239;-77
2024/04/23 10:48:07;;;;;;;3.43;2.47;;;;;;;7.18;100.00;96049.38;5393882;26;20330;-77
2024/04/23 10:50:35;;;;;;;5.93;2.57;;;;;;;7.16;100.00;96043.50;5394513;26;20227;-77
2024/04/23 10:53:02;;;;;;;4.30;2.57;;;;;;;7.24;100.00;96038.28;5393751;26;20337;-77
2024/04/23 10:55:31;;;;;;;4.83;2.83;;;;;;;7.22;100.00;96035.81;5394887;26;20779;-77
2024/04/23 10:57:58;;;;;;;5.33;2.83;;;;;;;7.30;100.00;96043.69;5394880;26;20368;-78
2024/04/23 11:00:29;;;;;;;3.20;2.30;;;;;;;7.45;100.00;96036.84;5394245;26;20590;-78
2024/04/23 11:02:57;;;;;;;5.33;2.53;;;;;;;7.38;100.00;96039.28;5393751;26;20873;-77
2024/04/23 11:05:32;;;;;;;5.43;2.37;;;;;;;7.49;100.00;96035.50;5395159;26;20677;-77
2024/04/23 11:08:06;;;;;;;7.27;2.63;;;;;;;7.47;100.00;96033.06;5394187;26;20278;-77
2024/04/23 11:10:48;;;;;;;3.60;2.17;;;;;;;7.29;100.00;96032.38;5395224;26;20242;-77
2024/04/23 11:13:25;;;;;;;3.87;2.33;;;;;;;7.22;100.00;96032.34;5392888;26;20306;-77
2024/04/23 11:15:54;;;;;;;7.60;3.00;;;;;;;7.21;100.00;96036.78;5395459;26;20787;-77
2024/04/23 11:18:23;;;;;;;6.17;2.63;;;;;;;7.59;100.00;96037.00;5394531;26;20338;-72
2024/04/23 11:20:55;;;;;;;5.17;2.67;;;;;;;7.46;100.00;96030.59;5394999;26;20281;-72
2024/04/23 11:23:22;;;;;;;6.57;3.10;;;;;;;7.10;100.00;96041.50;5393362;26;20319;-72
2024/04/23 11:25:50;;;;;;;4.87;3.07;;;;;;;7.27;100.00;96041.41;5394476;26;20230;-73
2024/04/23 11:28:16;;;;;;;5.03;3.17;;;;;;;7.20;100.00;96050.06;5393978;26;20246;-73
2024/04/23 11:30:44;;;;;;;4.70;2.47;;;;;;;7.11;100.00;96040.53;5394002;26;20227;-72
2024/04/23 11:33:13;;;;;;;6.37;2.80;;;;;;;7.10;100.00;96044.94;5392690;26;20239;-72
2024/04/23 11:35:44;;;;;;;4.20;2.53;;;;;;;7.27;100.00;96038.78;5393633;26;20230;-72
2024/04/23 11:38:09;;;;;;;4.30;2.77;;;;;;;7.23;100.00;96036.63;5393414;26;20270;-72
2024/04/23 11:40:37;;;;;;;6.17;3.03;;;;;;;7.26;100.00;96043.19;5394010;26;20283;-72
2024/04/23 11:43:03;;;;;;;4.43;2.50;;;;;;;7.24;100.00;96043.50;5393298;26;20247;-72
2024/04/23 11:45:31;;;;;;;4.73;3.30;;;;;;;7.38;100.00;96034.03;5392786;26;20338;-72
2024/04/23 11:48:00;;;;;;;4.67;2.83;;;;;;;7.44;100.00;96030.75;5394563;26;20231;-72